sensor_id;sensor_type;location;lat;lon;timestamp;temperature;humidity
52044;DHT22;38053;53.100;6.078;2023-04-24T00:00:09;10.70;99.90
52044;DHT22;38053;53.100;6.078;2023-04-24T00:02:36;10.70;99.90
52044;DHT22;38053;53.100;6.078;2023-04-24T00:05:05;10.70;99.90
52044;DHT22;38053;53.100;6.078;2023-04-24T00:07:32;10.60;99.90
52044;DHT22;38053;53.100;6.078;2023-04-24T00:09:57;10.60;99.90
52044;DHT22;38053;53.100;6.078;2023-04-24T00:12:25;10.60;99.90
52044;DHT22;38053;53.100;6.078;2023-04-24T00:14:51;10.50;99.90
52044;DHT22;38053;53.100;6.078;2023-04-24T00:17:16;10.50;99.90
52044;DHT22;38053;53.100;6.078;2023-04-24T00:19:46;10.60;99.90
52044;DHT22;38053;53.100;6.078;2023-04-24T00:22:11;10.50;99.90
52044;DHT22;38053;53.100;6.078;2023-04-24T00:24:39;10.50;99.90
52044;DHT22;38053;53.100;6.078;2023-04-24T00:27:05;10.40;99.90
52044;DHT22;38053;53.100;6.078;2023-04-24T00:29:30;10.40;99.90
52044;DHT22;38053;53.100;6.078;2023-04-24T00:31:56;10.30;99.90
52044;DHT22;38053;53.100;6.078;2023-04-24T00:34:22;10.30;99.90
52044;DHT22;38053;53.100;6.078;2023-04-24T00:36:48;10.30;99.90
52044;DHT22;38053;53.100;6.078;2023-04-24T00:39:21;10.20;99.90
52044;DHT22;38053;53.100;6.078;2023-04-24T00:41:48;10.20;99.90
52044;DHT22;38053;53.100;6.078;2023-04-24T00:44:14;10.20;99.90
52044;DHT22;38053;53.100;6.078;2023-04-24T00:46:41;10.20;99.90
52044;DHT22;38053;53.100;6.078;2023-04-24T00:49:07;10.20;99.90
52044;DHT22;38053;53.100;6.078;2023-04-24T00:51:33;10.20;99.90
52044;DHT22;38053;53.100;6.078;2023-04-24T00:54:00;10.20;99.90
52044;DHT22;38053;53.100;6.078;2023-04-24T00:56:27;10.30;99.90
52044;DHT22;38053;53.100;6.078;2023-04-24T00:58:53;10.20;99.90
52044;DHT22;38053;53.100;6.078;2023-04-24T01:01:20;10.20;99.90
52044;DHT22;38053;53.100;6.078;2023-04-24T01:03:46;10.20;99.90
52044;DHT22;38053;53.100;6.078;2023-04-24T01:06:13;10.20;99.90
52044;DHT22;38053;53.100;6.078;2023-04-24T01:08:40;10.20;99.90
52044;DHT22;38053;53.100;6.078;2023-04-24T01:11:07;10.20;99.90
52044;DHT22;38053;53.100;6.078;2023-04-24T01:13:33;10.10;99.90
52044;DHT22;38053;53.100;6.078;2023-04-24T01:15:59;10.10;99.90
52044;DHT22;38053;53.100;6.078;2023-04-24T01:18:26;10.10;99.90
52044;DHT22;38053;53.100;6.078;2023-04-24T01:20:54;10.10;99.90
52044;DHT22;38053;53.100;6.078;2023-04-24T01:23:22;10.10;99.90
52044;DHT22;38053;53.100;6.078;2023-04-24T01:25:49;10.00;99.90
52044;DHT22;38053;53.100;6.078;2023-04-24T01:28:16;10.00;99.90
52044;DHT22;38053;53.100;6.078;2023-04-24T01:30:42;10.00;99.90
52044;DHT22;38053;53.100;6.078;2023-04-24T01:33:08;10.00;99.90
52044;DHT22;38053;53.100;6.078;2023-04-24T01:35:33;10.00;99.90
52044;DHT22;38053;53.100;6.078;2023-04-24T01:38:01;10.10;99.90
52044;DHT22;38053;53.100;6.078;2023-04-24T01:40:27;10.10;99.90
52044;DHT22;38053;53.100;6.078;2023-04-24T01:42:53;10.10;99.90
52044;DHT22;38053;53.100;6.078;2023-04-24T01:45:19;10.10;99.90
52044;DHT22;38053;53.100;6.078;2023-04-24T01:47:45;10.10;99.90
52044;DHT22;38053;53.100;6.078;2023-04-24T01:50:11;10.10;99.90
52044;DHT22;38053;53.100;6.078;2023-04-24T01:52:37;10.10;99.90
52044;DHT22;38053;53.100;6.078;2023-04-24T01:55:04;10.10;99.90
52044;DHT22;38053;53.100;6.078;2023-04-24T01:57:31;10.10;99.90
52044;DHT22;38053;53.100;6.078;2023-04-24T01:59:57;10.10;99.90
52044;DHT22;38053;53.100;6.078;2023-04-24T02:02:23;10.10;99.90
52044;DHT22;38053;53.100;6.078;2023-04-24T02:04:53;10.10;99.90
52044;DHT22;38053;53.100;6.078;2023-04-24T02:07:19;10.10;99.90
52044;DHT22;38053;53.100;6.078;2023-04-24T02:09:45;10.10;99.90
52044;DHT22;38053;53.100;6.078;2023-04-24T02:12:11;10.10;99.90
52044;DHT22;38053;53.100;6.078;2023-04-24T02:14:37;10.10;99.90
52044;DHT22;38053;53.100;6.078;2023-04-24T02:17:03;10.20;99.90
52044;DHT22;38053;53.100;6.078;2023-04-24T02:19:29;10.10;99.90
52044;DHT22;38053;53.100;6.078;2023-04-24T02:21:54;10.10;99.90
52044;DHT22;38053;53.100;6.078;2023-04-24T02:24:20;10.20;99.90
52044;DHT22;38053;53.100;6.078;2023-04-24T02:26:46;10.10;99.90
52044;DHT22;38053;53.100;6.078;2023-04-24T02:29:11;10.20;99.90
52044;DHT22;38053;53.100;6.078;2023-04-24T02:31:37;10.20;99.90
52044;DHT22;38053;53.100;6.078;2023-04-24T02:34:03;10.20;99.90
52044;DHT22;38053;53.100;6.078;2023-04-24T02:36:28;10.20;99.90
52044;DHT22;38053;53.100;6.078;2023-04-24T02:38:55;10.20;99.90
52044;DHT22;38053;53.100;6.078;2023-04-24T02:41:21;10.20;99.90
52044;DHT22;38053;53.100;6.078;2023-04-24T02:43:47;10.20;99.90
52044;DHT22;38053;53.100;6.078;2023-04-24T02:46:12;10.20;99.90
52044;DHT22;38053;53.100;6.078;2023-04-24T02:48:38;10.20;99.90
52044;DHT22;38053;53.100;6.078;2023-04-24T02:51:04;10.20;99.90
52044;DHT22;38053;53.100;6.078;2023-04-24T02:53:30;10.20;99.90
52044;DHT22;38053;53.100;6.078;2023-04-24T02:55:56;10.20;99.90
52044;DHT22;38053;53.100;6.078;2023-04-24T02:58:22;10.20;99.90
52044;DHT22;38053;53.100;6.078;2023-04-24T03:00:48;10.20;99.90
52044;DHT22;38053;53.100;6.078;2023-04-24T03:03:14;10.20;99.90
52044;DHT22;38053;53.100;6.078;2023-04-24T03:05:40;10.20;99.90
52044;DHT22;38053;53.100;6.078;2023-04-24T03:08:06;10.20;99.90
52044;DHT22;38053;53.100;6.078;2023-04-24T03:10:32;10.20;99.90
52044;DHT22;38053;53.100;6.078;2023-04-24T03:12:58;10.20;99.90
52044;DHT22;38053;53.100;6.078;2023-04-24T03:15:23;10.20;99.90
52044;DHT22;38053;53.100;6.078;2023-04-24T03:17:49;10.20;99.90
52044;DHT22;38053;53.100;6.078;2023-04-24T03:20:15;10.20;99.90
52044;DHT22;38053;53.100;6.078;2023-04-24T03:22:41;10.20;99.90
52044;DHT22;38053;53.100;6.078;2023-04-24T03:25:07;10.20;99.90
52044;DHT22;38053;53.100;6.078;2023-04-24T03:27:34;10.20;99.90
52044;DHT22;38053;53.100;6.078;2023-04-24T03:30:01;10.20;99.90
52044;DHT22;38053;53.100;6.078;2023-04-24T03:32:27;10.20;99.90
52044;DHT22;38053;53.100;6.078;2023-04-24T03:34:53;10.20;99.90
52044;DHT22;38053;53.100;6.078;2023-04-24T03:37:18;10.30;99.90
52044;DHT22;38053;53.100;6.078;2023-04-24T03:39:44;10.30;99.90
52044;DHT22;38053;53.100;6.078;2023-04-24T03:42:10;10.30;99.90
52044;DHT22;38053;53.100;6.078;2023-04-24T03:44:36;10.20;99.90
52044;DHT22;38053;53.100;6.078;2023-04-24T03:47:02;10.20;99.90
52044;DHT22;38053;53.100;6.078;2023-04-24T03:49:27;10.20;99.90
52044;DHT22;38053;53.100;6.078;2023-04-24T03:51:53;10.20;99.90
52044;DHT22;38053;53.100;6.078;2023-04-24T03:54:28;10.20;99.90
52044;DHT22;38053;53.100;6.078;2023-04-24T03:56:54;10.20;99.90
52044;DHT22;38053;53.100;6.078;2023-04-24T03:59:20;10.20;99.90
52044;DHT22;38053;53.100;6.078;2023-04-24T04:01:46;10.10;99.90
52044;DHT22;38053;53.100;6.078;2023-04-24T04:04:11;10.10;99.90
52044;DHT22;38053;53.100;6.078;2023-04-24T04:06:37;10.00;99.90
52044;DHT22;38053;53.100;6.078;2023-04-24T04:09:03;10.00;99.90
52044;DHT22;38053;53.100;6.078;2023-04-24T04:11:29;10.00;99.90
52044;DHT22;38053;53.100;6.078;2023-04-24T04:13:55;10.00;99.90
52044;DHT22;38053;53.100;6.078;2023-04-24T04:16:22;10.00;99.90
52044;DHT22;38053;53.100;6.078;2023-04-24T04:18:48;10.00;99.90
52044;DHT22;38053;53.100;6.078;2023-04-24T04:21:14;10.00;99.90
52044;DHT22;38053;53.100;6.078;2023-04-24T04:23:40;9.90;99.90
52044;DHT22;38053;53.100;6.078;2023-04-24T04:26:06;9.90;99.90
52044;DHT22;38053;53.100;6.078;2023-04-24T04:28:33;9.90;99.90
52044;DHT22;38053;53.100;6.078;2023-04-24T04:30:59;9.90;99.90
52044;DHT22;38053;53.100;6.078;2023-04-24T04:33:25;9.90;99.90
52044;DHT22;38053;53.100;6.078;2023-04-24T04:35:51;9.90;99.90
52044;DHT22;38053;53.100;6.078;2023-04-24T04:38:18;9.80;99.90
52044;DHT22;38053;53.100;6.078;2023-04-24T04:40:45;9.80;99.90
52044;DHT22;38053;53.100;6.078;2023-04-24T04:43:11;9.80;99.90
52044;DHT22;38053;53.100;6.078;2023-04-24T04:45:38;9.80;99.90
52044;DHT22;38053;53.100;6.078;2023-04-24T04:48:05;9.80;99.90
52044;DHT22;38053;53.100;6.078;2023-04-24T04:50:37;9.80;99.90
52044;DHT22;38053;53.100;6.078;2023-04-24T04:53:03;9.80;99.90
52044;DHT22;38053;53.100;6.078;2023-04-24T04:55:29;9.80;99.90
52044;DHT22;38053;53.100;6.078;2023-04-24T04:57:54;9.70;99.90
52044;DHT22;38053;53.100;6.078;2023-04-24T05:00:21;9.70;99.90
52044;DHT22;38053;53.100;6.078;2023-04-24T05:02:49;9.70;99.90
52044;DHT22;38053;53.100;6.078;2023-04-24T05:05:15;9.80;99.90
52044;DHT22;38053;53.100;6.078;2023-04-24T05:07:42;9.80;99.90
52044;DHT22;38053;53.100;6.078;2023-04-24T05:10:08;9.80;99.90
52044;DHT22;38053;53.100;6.078;2023-04-24T05:12:34;9.70;99.90
52044;DHT22;38053;53.100;6.078;2023-04-24T05:15:00;9.70;99.90
52044;DHT22;38053;53.100;6.078;2023-04-24T05:17:26;9.70;99.90
52044;DHT22;38053;53.100;6.078;2023-04-24T05:19:51;9.70;99.90
52044;DHT22;38053;53.100;6.078;2023-04-24T05:22:17;9.70;99.90
52044;DHT22;38053;53.100;6.078;2023-04-24T05:24:46;9.80;99.90
52044;DHT22;38053;53.100;6.078;2023-04-24T05:27:12;9.80;99.90
52044;DHT22;38053;53.100;6.078;2023-04-24T05:29:38;9.80;99.90
52044;DHT22;38053;53.100;6.078;2023-04-24T05:32:05;9.70;99.90
52044;DHT22;38053;53.100;6.078;2023-04-24T05:34:31;9.80;99.90
52044;DHT22;38053;53.100;6.078;2023-04-24T05:36:57;9.80;99.90
52044;DHT22;38053;53.100;6.078;2023-04-24T05:39:23;9.80;99.90
52044;DHT22;38053;53.100;6.078;2023-04-24T05:41:50;9.80;99.90
52044;DHT22;38053;53.100;6.078;2023-04-24T05:44:16;9.80;99.90
52044;DHT22;38053;53.100;6.078;2023-04-24T05:46:42;9.70;99.90
52044;DHT22;38053;53.100;6.078;2023-04-24T05:49:07;9.70;99.90
52044;DHT22;38053;53.100;6.078;2023-04-24T05:51:33;9.70;99.90
52044;DHT22;38053;53.100;6.078;2023-04-24T05:53:59;9.80;99.90
52044;DHT22;38053;53.100;6.078;2023-04-24T05:56:25;9.80;99.90
52044;DHT22;38053;53.100;6.078;2023-04-24T05:58:51;9.80;99.90
52044;DHT22;38053;53.100;6.078;2023-04-24T06:01:16;9.80;99.90
52044;DHT22;38053;53.100;6.078;2023-04-24T06:03:42;9.70;99.90
52044;DHT22;38053;53.100;6.078;2023-04-24T06:06:08;9.70;99.90
52044;DHT22;38053;53.100;6.078;2023-04-24T06:08:35;9.70;99.90
52044;DHT22;38053;53.100;6.078;2023-04-24T06:11:01;9.70;99.90
52044;DHT22;38053;53.100;6.078;2023-04-24T06:13:27;9.70;99.90
52044;DHT22;38053;53.100;6.078;2023-04-24T06:15:53;9.70;99.90
52044;DHT22;38053;53.100;6.078;2023-04-24T06:18:18;9.60;99.90
52044;DHT22;38053;53.100;6.078;2023-04-24T06:20:45;9.70;99.90
52044;DHT22;38053;53.100;6.078;2023-04-24T06:23:11;9.70;99.90
52044;DHT22;38053;53.100;6.078;2023-04-24T06:25:37;9.70;99.90
52044;DHT22;38053;53.100;6.078;2023-04-24T06:28:03;9.70;99.90
52044;DHT22;38053;53.100;6.078;2023-04-24T06:30:29;9.70;99.90
52044;DHT22;38053;53.100;6.078;2023-04-24T06:32:55;9.70;99.90
52044;DHT22;38053;53.100;6.078;2023-04-24T06:35:21;9.70;99.90
52044;DHT22;38053;53.100;6.078;2023-04-24T06:37:46;9.60;99.90
52044;DHT22;38053;53.100;6.078;2023-04-24T06:40:12;9.60;99.90
52044;DHT22;38053;53.100;6.078;2023-04-24T06:42:38;9.70;99.90
52044;DHT22;38053;53.100;6.078;2023-04-24T06:45:04;9.60;99.90
52044;DHT22;38053;53.100;6.078;2023-04-24T06:47:30;9.70;99.90
52044;DHT22;38053;53.100;6.078;2023-04-24T06:49:56;9.60;99.90
52044;DHT22;38053;53.100;6.078;2023-04-24T06:52:22;9.60;99.90
52044;DHT22;38053;53.100;6.078;2023-04-24T06:54:48;9.60;99.90
52044;DHT22;38053;53.100;6.078;2023-04-24T06:57:14;9.60;99.90
52044;DHT22;38053;53.100;6.078;2023-04-24T06:59:41;9.60;99.90
52044;DHT22;38053;53.100;6.078;2023-04-24T07:02:07;9.60;99.90
52044;DHT22;38053;53.100;6.078;2023-04-24T07:04:33;9.50;99.90
52044;DHT22;38053;53.100;6.078;2023-04-24T07:06:58;9.50;99.90
52044;DHT22;38053;53.100;6.078;2023-04-24T07:09:25;9.50;99.90
52044;DHT22;38053;53.100;6.078;2023-04-24T07:11:52;9.40;99.90
52044;DHT22;38053;53.100;6.078;2023-04-24T07:14:18;9.40;99.90
52044;DHT22;38053;53.100;6.078;2023-04-24T07:16:44;9.40;99.90
52044;DHT22;38053;53.100;6.078;2023-04-24T07:19:11;9.40;99.90
52044;DHT22;38053;53.100;6.078;2023-04-24T07:21:37;9.30;99.90
52044;DHT22;38053;53.100;6.078;2023-04-24T07:24:03;9.30;99.90
52044;DHT22;38053;53.100;6.078;2023-04-24T07:26:30;9.30;99.90
52044;DHT22;38053;53.100;6.078;2023-04-24T07:28:56;9.20;99.90
52044;DHT22;38053;53.100;6.078;2023-04-24T07:31:21;9.20;99.90
52044;DHT22;38053;53.100;6.078;2023-04-24T07:33:48;9.20;99.90
52044;DHT22;38053;53.100;6.078;2023-04-24T07:36:14;9.20;99.90
52044;DHT22;38053;53.100;6.078;2023-04-24T07:38:45;9.20;99.90
52044;DHT22;38053;53.100;6.078;2023-04-24T07:41:11;9.20;99.90
52044;DHT22;38053;53.100;6.078;2023-04-24T07:43:36;9.20;99.90
52044;DHT22;38053;53.100;6.078;2023-04-24T07:46:02;9.20;99.90
52044;DHT22;38053;53.100;6.078;2023-04-24T07:48:28;9.20;99.90
52044;DHT22;38053;53.100;6.078;2023-04-24T07:50:54;9.20;99.90
52044;DHT22;38053;53.100;6.078;2023-04-24T07:53:20;9.20;99.90
52044;DHT22;38053;53.100;6.078;2023-04-24T07:55:45;9.20;99.90
52044;DHT22;38053;53.100;6.078;2023-04-24T07:58:11;9.20;99.90
52044;DHT22;38053;53.100;6.078;2023-04-24T08:00:37;9.10;99.90
52044;DHT22;38053;53.100;6.078;2023-04-24T08:03:03;9.10;99.90
52044;DHT22;38053;53.100;6.078;2023-04-24T08:05:28;9.10;99.90
52044;DHT22;38053;53.100;6.078;2023-04-24T08:07:55;9.10;99.90
52044;DHT22;38053;53.100;6.078;2023-04-24T08:10:22;9.10;99.90
52044;DHT22;38053;53.100;6.078;2023-04-24T08:12:48;9.10;99.90
52044;DHT22;38053;53.100;6.078;2023-04-24T08:15:14;9.10;99.90
52044;DHT22;38053;53.100;6.078;2023-04-24T08:17:40;9.10;99.90
52044;DHT22;38053;53.100;6.078;2023-04-24T08:20:06;9.10;99.90
52044;DHT22;38053;53.100;6.078;2023-04-24T08:22:35;9.20;99.90
52044;DHT22;38053;53.100;6.078;2023-04-24T08:25:01;9.20;99.90
52044;DHT22;38053;53.100;6.078;2023-04-24T08:27:27;9.20;99.90
52044;DHT22;38053;53.100;6.078;2023-04-24T08:29:54;9.30;99.90
52044;DHT22;38053;53.100;6.078;2023-04-24T08:32:19;9.40;99.90
52044;DHT22;38053;53.100;6.078;2023-04-24T08:34:45;9.40;99.90
52044;DHT22;38053;53.100;6.078;2023-04-24T08:37:11;9.40;99.90
52044;DHT22;38053;53.100;6.078;2023-04-24T08:39:37;9.40;99.90
52044;DHT22;38053;53.100;6.078;2023-04-24T08:42:05;9.40;99.90
52044;DHT22;38053;53.100;6.078;2023-04-24T08:44:34;9.50;99.90
52044;DHT22;38053;53.100;6.078;2023-04-24T08:47:03;9.50;99.90
52044;DHT22;38053;53.100;6.078;2023-04-24T08:49:30;9.60;99.90
52044;DHT22;38053;53.100;6.078;2023-04-24T08:51:56;9.60;99.90
52044;DHT22;38053;53.100;6.078;2023-04-24T08:54:22;9.50;99.90
52044;DHT22;38053;53.100;6.078;2023-04-24T08:56:49;9.50;99.90
52044;DHT22;38053;53.100;6.078;2023-04-24T08:59:16;9.40;99.90
52044;DHT22;38053;53.100;6.078;2023-04-24T09:01:41;9.40;99.90
52044;DHT22;38053;53.100;6.078;2023-04-24T09:04:09;9.30;99.90
52044;DHT22;38053;53.100;6.078;2023-04-24T09:06:39;9.30;99.90
52044;DHT22;38053;53.100;6.078;2023-04-24T09:09:04;9.30;99.90
52044;DHT22;38053;53.100;6.078;2023-04-24T09:11:31;9.30;99.90
52044;DHT22;38053;53.100;6.078;2023-04-24T09:14:00;9.30;99.90
52044;DHT22;38053;53.100;6.078;2023-04-24T09:16:26;9.40;99.90
52044;DHT22;38053;53.100;6.078;2023-04-24T09:18:53;9.40;99.90
52044;DHT22;38053;53.100;6.078;2023-04-24T09:21:21;9.50;99.90
52044;DHT22;38053;53.100;6.078;2023-04-24T09:23:58;9.60;99.90
52044;DHT22;38053;53.100;6.078;2023-04-24T09:26:24;9.60;99.90
52044;DHT22;38053;53.100;6.078;2023-04-24T09:28:50;9.70;99.90
52044;DHT22;38053;53.100;6.078;2023-04-24T09:31:18;9.80;99.90
52044;DHT22;38053;53.100;6.078;2023-04-24T09:34:05;10.00;99.90
52044;DHT22;38053;53.100;6.078;2023-04-24T09:36:39;10.10;99.90
52044;DHT22;38053;53.100;6.078;2023-04-24T09:39:14;10.20;99.90
52044;DHT22;38053;53.100;6.078;2023-04-24T09:41:50;10.30;99.90
52044;DHT22;38053;53.100;6.078;2023-04-24T09:44:18;10.40;99.90
52044;DHT22;38053;53.100;6.078;2023-04-24T09:46:50;10.50;99.90
52044;DHT22;38053;53.100;6.078;2023-04-24T09:49:20;10.40;99.90
52044;DHT22;38053;53.100;6.078;2023-04-24T09:51:45;10.30;99.90
52044;DHT22;38053;53.100;6.078;2023-04-24T09:54:18;10.30;99.90
52044;DHT22;38053;53.100;6.078;2023-04-24T09:56:47;10.20;99.90
52044;DHT22;38053;53.100;6.078;2023-04-24T09:59:15;10.20;99.90
52044;DHT22;38053;53.100;6.078;2023-04-24T10:01:41;10.20;99.90
52044;DHT22;38053;53.100;6.078;2023-04-24T10:04:28;10.20;99.90
52044;DHT22;38053;53.100;6.078;2023-04-24T10:06:57;10.20;99.90
52044;DHT22;38053;53.100;6.078;2023-04-24T10:09:25;10.30;99.90
52044;DHT22;38053;53.100;6.078;2023-04-24T10:11:52;10.20;99.90
52044;DHT22;38053;53.100;6.078;2023-04-24T10:14:20;10.20;99.90
52044;DHT22;38053;53.100;6.078;2023-04-24T10:16:47;10.20;99.90
52044;DHT22;38053;53.100;6.078;2023-04-24T10:19:17;10.20;99.90
52044;DHT22;38053;53.100;6.078;2023-04-24T10:21:46;10.10;99.90
52044;DHT22;38053;53.100;6.078;2023-04-24T10:24:17;10.00;99.90
52044;DHT22;38053;53.100;6.078;2023-04-24T10:26:43;10.00;99.90
52044;DHT22;38053;53.100;6.078;2023-04-24T10:29:11;9.90;99.90
52044;DHT22;38053;53.100;6.078;2023-04-24T10:31:38;10.00;99.90
52044;DHT22;38053;53.100;6.078;2023-04-24T10:34:09;10.00;99.90
52044;DHT22;38053;53.100;6.078;2023-04-24T10:36:35;10.00;99.90
52044;DHT22;38053;53.100;6.078;2023-04-24T10:39:03;10.10;99.90
52044;DHT22;38053;53.100;6.078;2023-04-24T10:41:32;10.10;99.90
52044;DHT22;38053;53.100;6.078;2023-04-24T10:44:08;10.10;99.90
52044;DHT22;38053;53.100;6.078;2023-04-24T10:46:35;10.20;99.90
52044;DHT22;38053;53.100;6.078;2023-04-24T10:49:05;10.30;99.90
52044;DHT22;38053;53.100;6.078;2023-04-24T10:51:51;10.50;99.90
52044;DHT22;38053;53.100;6.078;2023-04-24T10:54:44;10.60;99.90
52044;DHT22;38053;53.100;6.078;2023-04-24T10:59:45;10.70;99.90
52044;DHT22;38053;53.100;6.078;2023-04-24T11:02:11;10.90;99.90
52044;DHT22;38053;53.100;6.078;2023-04-24T11:04:39;10.90;99.90
52044;DHT22;38053;53.100;6.078;2023-04-24T11:07:05;10.90;99.90
52044;DHT22;38053;53.100;6.078;2023-04-24T11:09:31;10.70;99.90
52044;DHT22;38053;53.100;6.078;2023-04-24T11:12:08;10.60;99.90
52044;DHT22;38053;53.100;6.078;2023-04-24T11:17:47;10.40;99.90
52044;DHT22;38053;53.100;6.078;2023-04-24T11:20:17;10.10;99.90
52044;DHT22;38053;53.100;6.078;2023-04-24T11:22:43;9.80;99.90
52044;DHT22;38053;53.100;6.078;2023-04-24T11:25:09;9.50;99.90
52044;DHT22;38053;53.100;6.078;2023-04-24T11:27:44;9.30;99.90
52044;DHT22;38053;53.100;6.078;2023-04-24T11:30:17;9.10;99.90
52044;DHT22;38053;53.100;6.078;2023-04-24T11:32:43;9.10;99.90
52044;DHT22;38053;53.100;6.078;2023-04-24T11:35:17;9.10;99.90
52044;DHT22;38053;53.100;6.078;2023-04-24T11:37:44;9.10;99.90
52044;DHT22;38053;53.100;6.078;2023-04-24T11:40:16;9.20;99.90
52044;DHT22;38053;53.100;6.078;2023-04-24T11:42:47;9.20;99.90
52044;DHT22;38053;53.100;6.078;2023-04-24T11:45:24;9.30;99.90
52044;DHT22;38053;53.100;6.078;2023-04-24T11:47:50;9.40;99.90
52044;DHT22;38053;53.100;6.078;2023-04-24T11:50:31;9.40;99.90
52044;DHT22;38053;53.100;6.078;2023-04-24T11:52:59;9.50;99.90
52044;DHT22;38053;53.100;6.078;2023-04-24T11:55:27;9.60;99.90
52044;DHT22;38053;53.100;6.078;2023-04-24T11:57:55;9.60;99.90
52044;DHT22;38053;53.100;6.078;2023-04-24T12:00:27;9.70;99.90
52044;DHT22;38053;53.100;6.078;2023-04-24T12:03:07;9.70;99.90
52044;DHT22;38053;53.100;6.078;2023-04-24T12:05:33;9.80;99.90
52044;DHT22;38053;53.100;6.078;2023-04-24T12:08:00;9.80;99.90
52044;DHT22;38053;53.100;6.078;2023-04-24T12:10:28;9.80;99.90
52044;DHT22;38053;53.100;6.078;2023-04-24T12:12:56;9.80;99.90
52044;DHT22;38053;53.100;6.078;2023-04-24T12:15:23;9.80;99.90
52044;DHT22;38053;53.100;6.078;2023-04-24T12:17:51;9.80;99.90
52044;DHT22;38053;53.100;6.078;2023-04-24T12:20:17;9.80;99.90
52044;DHT22;38053;53.100;6.078;2023-04-24T12:22:58;9.90;99.90
52044;DHT22;38053;53.100;6.078;2023-04-24T12:25:32;9.90;99.90
52044;DHT22;38053;53.100;6.078;2023-04-24T12:30:41;10.30;99.90
52044;DHT22;38053;53.100;6.078;2023-04-24T12:33:09;10.60;99.90
52044;DHT22;38053;53.100;6.078;2023-04-24T12:35:35;10.60;99.90
52044;DHT22;38053;53.100;6.078;2023-04-24T12:38:09;10.60;99.90
52044;DHT22;38053;53.100;6.078;2023-04-24T12:40:35;10.50;99.90
52044;DHT22;38053;53.100;6.078;2023-04-24T12:43:01;10.40;99.90
52044;DHT22;38053;53.100;6.078;2023-04-24T12:45:27;10.40;99.90
52044;DHT22;38053;53.100;6.078;2023-04-24T12:47:53;10.50;99.90
52044;DHT22;38053;53.100;6.078;2023-04-24T12:50:19;10.50;99.90
52044;DHT22;38053;53.100;6.078;2023-04-24T12:52:45;10.50;99.90
52044;DHT22;38053;53.100;6.078;2023-04-24T12:55:11;10.50;99.90
52044;DHT22;38053;53.100;6.078;2023-04-24T12:57:38;10.40;99.90
52044;DHT22;38053;53.100;6.078;2023-04-24T13:00:06;10.40;99.90
52044;DHT22;38053;53.100;6.078;2023-04-24T13:02:33;10.40;99.90
52044;DHT22;38053;53.100;6.078;2023-04-24T13:04:59;10.50;99.90
52044;DHT22;38053;53.100;6.078;2023-04-24T13:07:25;10.80;99.90
52044;DHT22;38053;53.100;6.078;2023-04-24T13:09:52;10.80;99.90
52044;DHT22;38053;53.100;6.078;2023-04-24T13:12:18;10.80;99.90
52044;DHT22;38053;53.100;6.078;2023-04-24T13:14:45;10.80;99.90
52044;DHT22;38053;53.100;6.078;2023-04-24T13:17:11;10.70;99.90
52044;DHT22;38053;53.100;6.078;2023-04-24T13:19:39;10.50;99.90
52044;DHT22;38053;53.100;6.078;2023-04-24T13:22:06;10.40;99.90
52044;DHT22;38053;53.100;6.078;2023-04-24T13:24:32;10.20;99.90
52044;DHT22;38053;53.100;6.078;2023-04-24T13:26:58;10.10;99.90
52044;DHT22;38053;53.100;6.078;2023-04-24T13:29:25;10.10;99.90
52044;DHT22;38053;53.100;6.078;2023-04-24T13:31:51;10.00;99.90
52044;DHT22;38053;53.100;6.078;2023-04-24T13:34:19;10.00;99.90
52044;DHT22;38053;53.100;6.078;2023-04-24T13:36:45;9.90;99.90
52044;DHT22;38053;53.100;6.078;2023-04-24T13:39:11;9.80;99.90
52044;DHT22;38053;53.100;6.078;2023-04-24T13:41:37;9.70;99.90
52044;DHT22;38053;53.100;6.078;2023-04-24T13:44:04;9.60;99.90
52044;DHT22;38053;53.100;6.078;2023-04-24T13:46:30;9.60;99.90
52044;DHT22;38053;53.100;6.078;2023-04-24T13:48:56;9.60;99.90
52044;DHT22;38053;53.100;6.078;2023-04-24T13:51:23;9.70;99.90
52044;DHT22;38053;53.100;6.078;2023-04-24T13:53:49;9.70;99.90
52044;DHT22;38053;53.100;6.078;2023-04-24T13:56:15;9.80;99.90
52044;DHT22;38053;53.100;6.078;2023-04-24T13:58:41;9.80;99.90
52044;DHT22;38053;53.100;6.078;2023-04-24T14:01:06;9.60;99.90
52044;DHT22;38053;53.100;6.078;2023-04-24T14:03:33;9.50;99.90
52044;DHT22;38053;53.100;6.078;2023-04-24T14:05:59;9.50;99.90
52044;DHT22;38053;53.100;6.078;2023-04-24T14:08:25;9.40;99.90
52044;DHT22;38053;53.100;6.078;2023-04-24T14:10:50;9.40;99.90
52044;DHT22;38053;53.100;6.078;2023-04-24T14:13:16;9.40;99.90
52044;DHT22;38053;53.100;6.078;2023-04-24T14:15:42;9.40;99.90
52044;DHT22;38053;53.100;6.078;2023-04-24T14:18:08;9.20;99.90
52044;DHT22;38053;53.100;6.078;2023-04-24T14:20:34;9.20;99.90
52044;DHT22;38053;53.100;6.078;2023-04-24T14:22:59;9.00;99.90
52044;DHT22;38053;53.100;6.078;2023-04-24T14:25:26;8.90;99.90
52044;DHT22;38053;53.100;6.078;2023-04-24T14:27:51;8.90;99.90
52044;DHT22;38053;53.100;6.078;2023-04-24T14:30:18;8.90;99.90
52044;DHT22;38053;53.100;6.078;2023-04-24T14:32:44;9.00;99.90
52044;DHT22;38053;53.100;6.078;2023-04-24T14:35:09;9.10;99.90
52044;DHT22;38053;53.100;6.078;2023-04-24T14:37:36;9.20;99.90
52044;DHT22;38053;53.100;6.078;2023-04-24T14:40:03;9.20;99.90
52044;DHT22;38053;53.100;6.078;2023-04-24T14:42:30;9.20;99.90
52044;DHT22;38053;53.100;6.078;2023-04-24T14:44:56;9.20;99.90
52044;DHT22;38053;53.100;6.078;2023-04-24T14:47:22;9.30;99.90
52044;DHT22;38053;53.100;6.078;2023-04-24T14:49:48;9.30;99.90
52044;DHT22;38053;53.100;6.078;2023-04-24T14:52:14;9.40;99.90
52044;DHT22;38053;53.100;6.078;2023-04-24T14:54:39;9.40;99.90
52044;DHT22;38053;53.100;6.078;2023-04-24T14:57:05;9.40;99.90
52044;DHT22;38053;53.100;6.078;2023-04-24T14:59:31;9.40;99.90
52044;DHT22;38053;53.100;6.078;2023-04-24T15:01:57;9.40;99.90
52044;DHT22;38053;53.100;6.078;2023-04-24T15:04:27;9.40;99.90
52044;DHT22;38053;53.100;6.078;2023-04-24T15:06:54;9.40;99.90
52044;DHT22;38053;53.100;6.078;2023-04-24T15:09:21;9.40;99.90
52044;DHT22;38053;53.100;6.078;2023-04-24T15:11:48;9.40;99.90
52044;DHT22;38053;53.100;6.078;2023-04-24T15:14:15;9.50;99.90
52044;DHT22;38053;53.100;6.078;2023-04-24T15:16:41;9.50;99.90
52044;DHT22;38053;53.100;6.078;2023-04-24T15:19:07;9.40;99.90
52044;DHT22;38053;53.100;6.078;2023-04-24T15:21:32;9.40;99.90
52044;DHT22;38053;53.100;6.078;2023-04-24T15:23:58;9.30;99.90
52044;DHT22;38053;53.100;6.078;2023-04-24T15:26:24;9.40;99.90
52044;DHT22;38053;53.100;6.078;2023-04-24T15:28:51;9.40;99.90
52044;DHT22;38053;53.100;6.078;2023-04-24T15:31:17;9.40;99.90
52044;DHT22;38053;53.100;6.078;2023-04-24T15:33:43;9.30;99.90
52044;DHT22;38053;53.100;6.078;2023-04-24T15:36:09;9.30;99.90
52044;DHT22;38053;53.100;6.078;2023-04-24T15:38:36;9.20;99.90
52044;DHT22;38053;53.100;6.078;2023-04-24T15:41:02;9.00;99.90
52044;DHT22;38053;53.100;6.078;2023-04-24T15:43:28;8.90;99.90
52044;DHT22;38053;53.100;6.078;2023-04-24T15:45:57;8.90;99.90